Airfield :
LOGIN :

Register | Disclaimer

   EN    FR    IT 

 










Legend :    VFR   Marginal VFR   IFR   Intensive IFR   Very Intensive IFR
Visi :
Ceiling :
>= 8 km
>= 3000ft
5 to 8 km
1000 to 3000 ft
1500m to 5 km
500 to 1000 ft
800 to 1500m
200 to 500 ft
< 800m
< 200 ft
Symbols :   Thunderstorms  Fog  Heavy snow  Heavy precipitations  Wind > 20 kt
SIGMETs :     Misc.  Thunderstorms  Icing  Turbulence  Mountain Waves  Volcanic Ashes







- Airport Elevation : 364 ft
- IATA code : FRA


EDDF - Frankfurt Int.

CURRENT METAR :
  • 161220Z 21012KT 9999 BKN026 06/01 Q1012 NOSIG

EXPIRED METARs :
  • 161150Z 20008KT 9999 BKN025 05/01 Q1012 NOSIG
  • 161120Z 22010KT 9999 FEW022 OVC025 05/00 Q1013 NOSIG
  • 161050Z 21008KT 9999 OVC025 05/01 Q1013 NOSIG
  • 161020Z 21009KT 9999 OVC024 05/01 Q1014 NOSIG
  • 160950Z 20010KT 9999 OVC025 05/01 Q1014 NOSIG
  • 160920Z 21009KT 9999 OVC025 05/01 Q1014 NOSIG

TAF TAF EDDF
Valid from the 16 at 12:00 until the 17 at 18:00 UTC


161100Z 1612/1718 21010KT 9999 SCT030
TEMPO 1612/1615 BKN030
BECMG 1701/1704 BKN025
PROB30
TEMPO 1703/1706 RA
TEMPO 1706/1718 24015G25KT
PROB30
TEMPO 1711/1718 SHRA BKN020CB
No reported NOTAMs for that airfield.



MET'MAP, your aeronautical weather chart ! - Copyright ORBIFLY December 2007 - Disclaimer

ORBIFLY MET'MAP TEAM :

Programming & Development : Alexandra Zaïnal
Concept & Development : Baudouin d'Aumeries
Co-Development & Prog : Marc-Olivier Méhu
Technical & hardware support : Manuel Goepfert

Contact : metmap@orbifly.com




SOURCES & CREDITS :

   NOAA